Time;durP1;ratioP1;P1;durP2;ratioP2;P2;SDS_P1;SDS_P2;PMS_P1;PMS_P2;Temp;Humidity;BMP_temperature;BMP_pressure;BME280_temperature;BME280_humidity;BME280_pressure;Samples;Min_cycle;Max_cycle;Signal;HPM_P1;HPM_P2
2022/11/12 00:00:04;;;;;;;1.52;0.80;;;;;;;;;;5051587;28;20106;-40
2022/11/12 00:02:48;;;;;;;2.55;1.17;;;;;;;;;;5051483;28;20442;-40
2022/11/12 00:05:32;;;;;;;1.15;1.05;;;;;;;;;;5051473;28;20076;-40
2022/11/12 00:08:17;;;;;;;1.73;1.00;;;;;;;;;;5051059;28;20086;-40
2022/11/12 00:11:00;;;;;;;1.55;0.98;;;;;;;;;;5051462;28;20106;-40
2022/11/12 00:13:44;;;;;;;2.75;1.15;;;;;;;;;;5051462;28;20036;-40
2022/11/12 00:16:28;;;;;;;2.50;0.95;;;;;;;;;;5051030;28;20466;-40
2022/11/12 00:19:12;;;;;;;1.20;0.80;;;;;;;;;;5051175;28;20129;-40
2022/11/12 00:21:56;;;;;;;3.60;1.90;;;;;;;;;;5051346;28;20036;-40
2022/11/12 00:24:40;;;;;;;3.67;1.55;;;;;;;;;;5051273;28;20114;-40
2022/11/12 00:27:24;;;;;;;2.63;1.48;;;;;;;;;;5051161;28;20114;-39
2022/11/12 00:30:08;;;;;;;1.08;0.85;;;;;;;;;;5051049;28;20095;-40
2022/11/12 00:32:52;;;;;;;1.05;0.95;;;;;;;;;;5050965;28;20086;-40
2022/11/12 00:35:36;;;;;;;1.80;1.25;;;;;;;;;;5050896;28;20098;-40
2022/11/12 00:38:20;;;;;;;2.22;1.70;;;;;;;;;;5051186;28;20517;-40
2022/11/12 00:41:04;;;;;;;0.90;0.82;;;;;;;;;;5050943;28;20548;-40
2022/11/12 00:43:48;;;;;;;1.30;1.20;;;;;;;;;;5051062;28;20151;-40
2022/11/12 00:46:31;;;;;;;2.20;1.15;;;;;;;;;;5050859;28;20114;-40
2022/11/12 00:49:15;;;;;;;1.85;1.27;;;;;;;;;;5050597;28;20060;-40
2022/11/12 00:51:59;;;;;;;0.90;0.80;;;;;;;;;;5050776;28;20036;-40
2022/11/12 00:54:43;;;;;;;2.00;1.00;;;;;;;;;;5050773;28;20075;-40
2022/11/12 00:57:27;;;;;;;1.13;1.00;;;;;;;;;;5054626;28;20083;-40
2022/11/12 01:00:14;;;;;;;1.58;1.30;;;;;;;;;;5054380;28;20044;-40
2022/11/12 01:02:58;;;;;;;2.13;1.17;;;;;;;;;;5054600;28;20052;-40
2022/11/12 01:05:42;;;;;;;1.30;1.02;;;;;;;;;;5054269;28;20105;-40
2022/11/12 01:08:27;;;;;;;2.22;0.98;;;;;;;;;;5054269;28;20051;-40
2022/11/12 01:11:12;;;;;;;2.25;1.00;;;;;;;;;;5054450;28;20083;-39
2022/11/12 01:14:01;;;;;;;2.40;1.20;;;;;;;;;;5054105;28;20044;-40
2022/11/12 01:16:44;;;;;;;1.17;0.93;;;;;;;;;;5054092;28;20140;-40
2022/11/12 01:19:28;;;;;;;0.50;0.50;;;;;;;;;;5053271;28;20048;-40
2022/11/12 01:22:12;;;;;;;1.80;1.00;;;;;;;;;;5054273;28;20114;-40
2022/11/12 01:24:56;;;;;;;1.02;0.82;;;;;;;;;;5054207;28;20440;-40
2022/11/12 01:27:40;;;;;;;1.00;0.77;;;;;;;;;;5053984;28;20553;-40
2022/11/12 01:30:24;;;;;;;0.95;0.77;;;;;;;;;;5053773;28;20047;-40
2022/11/12 01:33:08;;;;;;;1.85;1.13;;;;;;;;;;5053976;28;20079;-40
2022/11/12 01:35:52;;;;;;;1.35;0.80;;;;;;;;;;5053986;28;20047;-40
2022/11/12 01:38:37;;;;;;;0.80;0.80;;;;;;;;;;5053651;28;20114;-40
2022/11/12 01:41:23;;;;;;;1.30;0.93;;;;;;;;;;5053761;28;20048;-40
2022/11/12 01:44:10;;;;;;;1.73;1.05;;;;;;;;;;5053787;28;20044;-40
2022/11/12 01:46:57;;;;;;;1.15;0.77;;;;;;;;;;5053255;28;20043;-40
2022/11/12 01:49:44;;;;;;;0.88;0.88;;;;;;;;;;5052392;28;20059;-40
2022/11/12 01:52:34;;;;;;;0.75;0.75;;;;;;;;;;5053648;28;20040;-40
2022/11/12 01:55:20;;;;;;;1.92;1.23;;;;;;;;;;5053256;28;20051;-40
2022/11/12 01:58:07;;;;;;;0.77;0.73;;;;;;;;;;5053335;28;20087;-40
2022/11/12 02:00:51;;;;;;;1.83;1.05;;;;;;;;;;5053523;28;20509;-40
2022/11/12 02:03:35;;;;;;;1.95;1.00;;;;;;;;;;5053098;28;20040;-40
2022/11/12 02:06:19;;;;;;;1.58;1.08;;;;;;;;;;5053064;28;20074;-40
2022/11/12 02:09:04;;;;;;;3.60;0.77;;;;;;;;;;5052978;28;20106;-41
2022/11/12 02:11:47;;;;;;;1.20;0.90;;;;;;;;;;5053646;28;20785;-40
2022/11/12 02:14:32;;;;;;;1.05;0.80;;;;;;;;;;5053143;28;20044;-40
2022/11/12 02:17:16;;;;;;;0.77;0.47;;;;;;;;;;5053172;28;20080;-40
2022/11/12 02:20:00;;;;;;;1.85;0.85;;;;;;;;;;5052965;28;20537;-40
2022/11/12 02:22:44;;;;;;;1.08;0.75;;;;;;;;;;5052969;28;20056;-41
2022/11/12 02:25:28;;;;;;;0.98;0.63;;;;;;;;;;5052737;28;20093;-40
2022/11/12 02:28:12;;;;;;;1.77;1.02;;;;;;;;;;5052732;28;20067;-40
2022/11/12 02:30:56;;;;;;;0.73;0.65;;;;;;;;;;5052617;28;20044;-40
2022/11/12 02:33:40;;;;;;;1.10;0.88;;;;;;;;;;5052504;28;20039;-40
2022/11/12 02:36:24;;;;;;;1.73;0.80;;;;;;;;;;5052552;28;20493;-40
2022/11/12 02:39:08;;;;;;;2.80;1.30;;;;;;;;;;5053069;28;20544;-40
2022/11/12 02:41:52;;;;;;;1.02;0.73;;;;;;;;;;5052721;28;20087;-40
2022/11/12 02:44:36;;;;;;;1.15;0.93;;;;;;;;;;5051554;28;20055;-40
2022/11/12 02:47:20;;;;;;;0.60;0.57;;;;;;;;;;5052371;28;20060;-40
2022/11/12 02:50:04;;;;;;;1.30;1.17;;;;;;;;;;5052579;28;20106;-40
2022/11/12 02:52:48;;;;;;;1.60;0.90;;;;;;;;;;5052152;28;20067;-40
2022/11/12 02:55:32;;;;;;;0.93;0.80;;;;;;;;;;5052446;28;20047;-40
2022/11/12 02:58:16;;;;;;;1.88;0.82;;;;;;;;;;5052122;28;20119;-40
2022/11/12 03:00:59;;;;;;;1.20;0.98;;;;;;;;;;5052388;28;20087;-40
2022/11/12 03:03:43;;;;;;;1.10;0.68;;;;;;;;;;5052053;28;20056;-40
2022/11/12 03:06:27;;;;;;;1.08;0.80;;;;;;;;;;5052144;28;20036;-40
2022/11/12 03:09:11;;;;;;;1.30;1.10;;;;;;;;;;5051973;28;20415;-40
2022/11/12 03:11:55;;;;;;;1.45;0.85;;;;;;;;;;5051938;28;20040;-40
2022/11/12 03:14:39;;;;;;;0.65;0.65;;;;;;;;;;5052032;28;20043;-40
2022/11/12 03:17:23;;;;;;;1.58;0.70;;;;;;;;;;5051823;28;20035;-40
2022/11/12 03:20:07;;;;;;;2.22;0.80;;;;;;;;;;5051973;28;20541;-41
2022/11/12 03:22:58;;;;;;;0.73;0.57;;;;;;;;;;5051640;28;20039;-41
2022/11/12 03:25:43;;;;;;;0.70;0.60;;;;;;;;;;5051890;28;20047;-40
2022/11/12 03:28:27;;;;;;;1.75;1.15;;;;;;;;;;5051700;28;20063;-40
2022/11/12 03:31:11;;;;;;;1.42;0.82;;;;;;;;;;5051653;28;20079;-40
2022/11/12 03:33:55;;;;;;;1.60;0.68;;;;;;;;;;5051529;28;20091;-40
2022/11/12 03:36:39;;;;;;;1.08;0.90;;;;;;;;;;5051508;28;20047;-40
2022/11/12 03:39:22;;;;;;;1.27;0.98;;;;;;;;;;5051794;28;20071;-41
2022/11/12 03:42:07;;;;;;;0.57;0.55;;;;;;;;;;5051455;28;20079;-40
2022/11/12 03:44:50;;;;;;;1.25;0.90;;;;;;;;;;5051740;28;20114;-40
2022/11/12 03:47:34;;;;;;;1.52;1.00;;;;;;;;;;5051393;28;20125;-40
2022/11/12 03:50:20;;;;;;;0.75;0.50;;;;;;;;;;5051336;28;20094;-40
2022/11/12 03:53:04;;;;;;;0.88;0.70;;;;;;;;;;5051579;28;20063;-40
2022/11/12 03:55:48;;;;;;;1.13;0.60;;;;;;;;;;5051598;28;20521;-40
2022/11/12 03:58:31;;;;;;;0.70;0.68;;;;;;;;;;5051350;28;20107;-40
2022/11/12 04:01:15;;;;;;;2.38;0.73;;;;;;;;;;5051523;28;20084;-42
2022/11/12 04:03:59;;;;;;;0.93;0.73;;;;;;;;;;5051201;28;20040;-40
2022/11/12 04:09:46;;;;;;;1.27;0.65;;;;;;;;;;5051236;28;20120;-40
2022/11/12 04:15:33;;;;;;;0.90;0.80;;;;;;;;;;5051128;28;20580;-40
2022/11/12 04:27:33;;;;;;;1.20;0.60;;;;;;;;;;5051041;28;20044;-40
2022/11/12 04:30:17;;;;;;;1.95;0.77;;;;;;;;;;5052201;28;20051;-40
2022/11/12 04:33:01;;;;;;;0.95;0.70;;;;;;;;;;5053851;28;20106;-40
2022/11/12 04:35:45;;;;;;;0.68;0.68;;;;;;;;;;5055147;28;20071;-41
2022/11/12 04:38:29;;;;;;;0.93;0.30;;;;;;;;;;5055024;28;20044;-40
2022/11/12 04:47:18;;;;;;;0.77;0.63;;;;;;;;;;5054597;28;20048;-40
2022/11/12 04:50:04;;;;;;;0.63;0.63;;;;;;;;;;5054585;28;20133;-40
2022/11/12 04:52:48;;;;;;;0.65;0.60;;;;;;;;;;5054758;28;20055;-40
2022/11/12 04:55:32;;;;;;;2.28;0.68;;;;;;;;;;5054492;28;20040;-40
2022/11/12 04:58:16;;;;;;;1.85;0.55;;;;;;;;;;5054475;28;20047;-40
2022/11/12 05:01:00;;;;;;;1.75;0.70;;;;;;;;;;5054435;28;20430;-40
2022/11/12 05:03:44;;;;;;;0.50;0.50;;;;;;;;;;5054354;28;20433;-40
2022/11/12 05:09:31;;;;;;;1.45;0.80;;;;;;;;;;5054114;28;20056;-40
2022/11/12 05:12:15;;;;;;;1.70;0.77;;;;;;;;;;5054498;28;20043;-40
2022/11/12 05:14:59;;;;;;;0.57;0.55;;;;;;;;;;5054413;28;20048;-40
2022/11/12 05:17:43;;;;;;;1.45;0.70;;;;;;;;;;5053024;28;20048;-41
2022/11/12 05:20:27;;;;;;;0.55;0.32;;;;;;;;;;5054211;28;20040;-40
2022/11/12 05:23:12;;;;;;;0.57;0.43;;;;;;;;;;5054243;28;20072;-40
2022/11/12 05:25:55;;;;;;;1.73;0.85;;;;;;;;;;5054236;28;20083;-40
2022/11/12 05:28:39;;;;;;;1.15;0.80;;;;;;;;;;5053667;28;20413;-40
2022/11/12 05:31:23;;;;;;;0.40;0.30;;;;;;;;;;5054017;28;20044;-40
2022/11/12 05:34:07;;;;;;;0.60;0.60;;;;;;;;;;5053751;28;20036;-40
2022/11/12 05:36:51;;;;;;;0.60;0.60;;;;;;;;;;5053886;28;20082;-40
2022/11/12 05:39:35;;;;;;;0.98;0.80;;;;;;;;;;5053635;28;20044;-39
2022/11/12 05:42:19;;;;;;;1.35;0.80;;;;;;;;;;5053485;28;20048;-40
2022/11/12 05:45:03;;;;;;;1.48;0.55;;;;;;;;;;5053551;28;20120;-40
2022/11/12 05:47:48;;;;;;;0.50;0.50;;;;;;;;;;5053273;28;20067;-40
2022/11/12 05:50:31;;;;;;;0.55;0.52;;;;;;;;;;5053382;28;20055;-40
2022/11/12 05:53:15;;;;;;;1.48;0.70;;;;;;;;;;5053632;28;20040;-40
2022/11/12 05:56:00;;;;;;;0.50;0.50;;;;;;;;;;5053380;28;20075;-40
2022/11/12 05:58:44;;;;;;;0.82;0.50;;;;;;;;;;5053520;28;20039;-41
2022/11/12 06:01:28;;;;;;;0.65;0.65;;;;;;;;;;5053467;28;20480;-40
2022/11/12 06:04:15;;;;;;;0.32;0.32;;;;;;;;;;5053347;28;20410;-40
2022/11/12 06:07:02;;;;;;;0.47;0.47;;;;;;;;;;5052233;28;20060;-40
2022/11/12 06:09:46;;;;;;;1.85;1.13;;;;;;;;;;5053120;28;20526;-40
2022/11/12 06:12:30;;;;;;;1.05;0.75;;;;;;;;;;5051922;28;20062;-40
2022/11/12 06:15:14;;;;;;;0.80;0.80;;;;;;;;;;5053289;28;20087;-41
2022/11/12 06:17:58;;;;;;;0.77;0.68;;;;;;;;;;5053182;28;20393;-43
2022/11/12 06:20:42;;;;;;;0.85;0.57;;;;;;;;;;5053060;28;20040;-40
2022/11/12 06:23:26;;;;;;;0.73;0.60;;;;;;;;;;5052792;28;20532;-40
2022/11/12 06:26:10;;;;;;;0.73;0.50;;;;;;;;;;5052859;28;20036;-40
2022/11/12 06:28:54;;;;;;;0.50;0.50;;;;;;;;;;5052637;28;20048;-40
2022/11/12 06:31:38;;;;;;;0.93;0.70;;;;;;;;;;5052867;28;20163;-41
2022/11/12 06:34:22;;;;;;;0.60;0.50;;;;;;;;;;5052793;28;20044;-40
2022/11/12 06:37:06;;;;;;;0.80;0.57;;;;;;;;;;5052847;28;20063;-40
2022/11/12 06:39:50;;;;;;;0.38;0.38;;;;;;;;;;5052444;28;20044;-41
2022/11/12 06:42:34;;;;;;;0.50;0.50;;;;;;;;;;5052649;28;20099;-40
2022/11/12 06:45:18;;;;;;;0.40;0.40;;;;;;;;;;5052796;28;20044;-40
2022/11/12 06:48:02;;;;;;;0.38;0.38;;;;;;;;;;5052083;28;20118;-40
2022/11/12 06:50:46;;;;;;;0.77;0.60;;;;;;;;;;5052275;28;20036;-40
2022/11/12 06:53:30;;;;;;;1.67;0.70;;;;;;;;;;5051489;28;20063;-40
2022/11/12 06:56:14;;;;;;;0.88;0.65;;;;;;;;;;5052509;28;20063;-40
2022/11/12 06:58:58;;;;;;;0.30;0.30;;;;;;;;;;5052187;28;20040;-40
2022/11/12 07:01:42;;;;;;;0.30;0.30;;;;;;;;;;5052052;28;20083;-40
2022/11/12 07:04:26;;;;;;;0.75;0.70;;;;;;;;;;5051957;28;20106;-40
2022/11/12 07:07:10;;;;;;;0.40;0.40;;;;;;;;;;5052340;28;20078;-40
2022/11/12 07:09:54;;;;;;;0.93;0.50;;;;;;;;;;5051931;28;20179;-41
2022/11/12 07:12:38;;;;;;;0.43;0.40;;;;;;;;;;5051880;28;20051;-40
2022/11/12 07:15:22;;;;;;;0.65;0.35;;;;;;;;;;5051851;28;20125;-40
2022/11/12 07:18:06;;;;;;;0.63;0.60;;;;;;;;;;5051914;28;20112;-41
2022/11/12 07:20:50;;;;;;;0.55;0.50;;;;;;;;;;5051089;28;20047;-40
2022/11/12 07:23:35;;;;;;;1.10;0.55;;;;;;;;;;5051839;28;20556;-40
2022/11/12 07:26:20;;;;;;;1.20;0.40;;;;;;;;;;5051652;28;20154;-40
2022/11/12 07:29:06;;;;;;;1.27;0.60;;;;;;;;;;5051609;28;20043;-40
2022/11/12 07:31:50;;;;;;;0.30;0.30;;;;;;;;;;5050731;28;20048;-41
2022/11/12 07:34:34;;;;;;;0.30;0.30;;;;;;;;;;5051594;28;20087;-40
2022/11/12 07:37:18;;;;;;;0.50;0.50;;;;;;;;;;5051802;28;20426;-40
2022/11/12 07:40:02;;;;;;;0.73;0.55;;;;;;;;;;5051328;28;20418;-41
2022/11/12 07:42:47;;;;;;;0.30;0.30;;;;;;;;;;5051663;28;20498;-39
2022/11/12 07:45:31;;;;;;;0.50;0.45;;;;;;;;;;5051499;28;20032;-40
2022/11/12 07:48:15;;;;;;;2.78;0.60;;;;;;;;;;5051194;28;20055;-39
2022/11/12 07:51:19;;;;;;;1.80;0.73;;;;;;;;;;5051344;28;20040;-40
2022/11/12 07:54:03;;;;;;;1.90;0.85;;;;;;;;;;5051564;28;20399;-40
2022/11/12 07:56:48;;;;;;;4.55;0.60;;;;;;;;;;5051689;28;20047;-40
2022/11/12 07:59:32;;;;;;;0.47;0.47;;;;;;;;;;5051254;28;20111;-40
2022/11/12 08:02:16;;;;;;;6.07;1.38;;;;;;;;;;5051519;28;20047;-40
2022/11/12 08:05:00;;;;;;;0.20;0.20;;;;;;;;;;5053041;28;20489;-40
2022/11/12 08:07:44;;;;;;;0.50;0.50;;;;;;;;;;5055308;28;20434;-40
2022/11/12 08:10:28;;;;;;;0.20;0.20;;;;;;;;;;5055619;28;20044;-40
2022/11/12 08:13:12;;;;;;;0.60;0.55;;;;;;;;;;5055252;28;20067;-40
2022/11/12 08:15:56;;;;;;;0.28;0.28;;;;;;;;;;5055891;28;20056;-40
2022/11/12 08:18:41;;;;;;;0.52;0.47;;;;;;;;;;5055353;28;20170;-41
2022/11/12 08:21:25;;;;;;;0.60;0.30;;;;;;;;;;5055337;28;20044;-41
2022/11/12 08:24:09;;;;;;;1.42;0.80;;;;;;;;;;5055000;28;20183;-40
2022/11/12 08:26:53;;;;;;;0.90;0.80;;;;;;;;;;5055292;28;20036;-40
2022/11/12 08:29:37;;;;;;;0.77;0.70;;;;;;;;;;5054943;28;20464;-40
2022/11/12 08:32:21;;;;;;;1.50;0.55;;;;;;;;;;5055253;28;20136;-40
2022/11/12 08:35:05;;;;;;;0.70;0.40;;;;;;;;;;5055119;28;20568;-40
2022/11/12 08:37:49;;;;;;;1.25;1.15;;;;;;;;;;5055100;28;20051;-40
2022/11/12 08:40:32;;;;;;;1.30;0.60;;;;;;;;;;5054783;28;20658;-40
2022/11/12 08:43:16;;;;;;;0.70;0.70;;;;;;;;;;5054767;28;20159;-40
2022/11/12 08:46:01;;;;;;;2.83;0.63;;;;;;;;;;5054761;28;20040;-40
2022/11/12 08:48:45;;;;;;;1.02;0.50;;;;;;;;;;5054433;28;20056;-42
2022/11/12 08:51:29;;;;;;;3.08;0.65;;;;;;;;;;5054861;28;20087;-40
2022/11/12 08:54:13;;;;;;;1.50;1.10;;;;;;;;;;5054434;28;20043;-40
2022/11/12 08:56:57;;;;;;;3.97;1.35;;;;;;;;;;5054564;28;20052;-40
2022/11/12 08:59:41;;;;;;;0.73;0.40;;;;;;;;;;5054624;28;20052;-40
2022/11/12 09:02:25;;;;;;;1.25;0.47;;;;;;;;;;5054235;28;20079;-40
2022/11/12 09:05:09;;;;;;;7.80;1.17;;;;;;;;;;5054396;28;20052;-40
2022/11/12 09:08:00;;;;;;;1.10;0.85;;;;;;;;;;5054285;28;20076;-40
2022/11/12 09:10:44;;;;;;;0.40;0.40;;;;;;;;;;5054198;28;20060;-40
2022/11/12 09:13:28;;;;;;;0.55;0.40;;;;;;;;;;5054094;28;20044;-41
2022/11/12 09:16:12;;;;;;;0.93;0.40;;;;;;;;;;5053661;28;20135;-40
2022/11/12 09:18:56;;;;;;;1.30;0.50;;;;;;;;;;5054358;28;20035;-40
2022/11/12 09:21:40;;;;;;;0.40;0.40;;;;;;;;;;5054198;28;20126;-41
2022/11/12 09:24:24;;;;;;;0.45;0.45;;;;;;;;;;5052938;28;20040;-41
2022/11/12 09:27:08;;;;;;;0.65;0.40;;;;;;;;;;5054275;28;20036;-40
2022/11/12 09:29:52;;;;;;;0.55;0.47;;;;;;;;;;5053799;28;20052;-40
2022/11/12 09:32:36;;;;;;;1.85;0.85;;;;;;;;;;5053975;28;20561;-40
2022/11/12 09:35:20;;;;;;;0.30;0.30;;;;;;;;;;5053853;28;20619;-40
2022/11/12 09:38:04;;;;;;;1.35;0.60;;;;;;;;;;5053931;28;20075;-41
2022/11/12 09:40:51;;;;;;;0.73;0.63;;;;;;;;;;5053705;28;20099;-41
2022/11/12 09:43:39;;;;;;;0.50;0.50;;;;;;;;;;5053771;28;20403;-40
2022/11/12 09:46:42;;;;;;;0.38;0.38;;;;;;;;;;5053633;28;20040;-40
2022/11/12 09:49:30;;;;;;;0.57;0.57;;;;;;;;;;5053472;28;20048;-40
2022/11/12 09:52:22;;;;;;;1.08;0.45;;;;;;;;;;5053396;28;20497;-40
2022/11/12 09:55:16;;;;;;;0.60;0.40;;;;;;;;;;5053444;28;20082;-40
2022/11/12 09:58:00;;;;;;;0.50;0.47;;;;;;;;;;5053671;28;20048;-40
2022/11/12 10:00:55;;;;;;;0.40;0.40;;;;;;;;;;5053520;28;20446;-40
2022/11/12 10:03:42;;;;;;;0.60;0.30;;;;;;;;;;5053456;28;20044;-40
2022/11/12 10:06:34;;;;;;;0.38;0.32;;;;;;;;;;5053345;28;20071;-40
2022/11/12 10:09:21;;;;;;;5.25;0.90;;;;;;;;;;5053252;28;20119;-40
2022/11/12 10:12:33;;;;;;;1.75;0.32;;;;;;;;;;5053060;28;20082;-41
2022/11/12 10:18:58;;;;;;;0.73;0.73;;;;;;;;;;5060284;28;20448;-40
2022/11/12 10:21:50;;;;;;;0.47;0.40;;;;;;;;;;5051761;28;20532;-40
2022/11/12 10:24:36;;;;;;;0.55;0.50;;;;;;;;;;5053129;28;20039;-40
2022/11/12 10:27:21;;;;;;;0.82;0.47;;;;;;;;;;5052583;28;20075;-41
2022/11/12 10:30:12;;;;;;;1.17;0.52;;;;;;;;;;5052438;28;20087;-40
2022/11/12 10:32:56;;;;;;;0.63;0.50;;;;;;;;;;5052939;28;20040;-40
2022/11/12 10:35:40;;;;;;;0.57;0.40;;;;;;;;;;5052823;28;20084;-40
2022/11/12 10:38:26;;;;;;;1.13;0.30;;;;;;;;;;5052859;28;20107;-40
2022/11/12 10:41:24;;;;;;;0.70;0.38;;;;;;;;;;5052519;28;20040;-40
2022/11/12 10:44:13;;;;;;;0.68;0.40;;;;;;;;;;5052473;28;20120;-41
2022/11/12 10:47:16;;;;;;;0.30;0.30;;;;;;;;;;5052289;28;20197;-40
2022/11/12 10:50:02;;;;;;;6.60;0.57;;;;;;;;;;5052275;28;20048;-40
2022/11/12 10:52:55;;;;;;;0.40;0.40;;;;;;;;;;5052599;28;20131;-40
2022/11/12 10:56:00;;;;;;;0.30;0.30;;;;;;;;;;5052501;28;20048;-40
2022/11/12 10:58:44;;;;;;;0.25;0.25;;;;;;;;;;5052124;28;20134;-40
2022/11/12 11:01:30;;;;;;;0.55;0.40;;;;;;;;;;5052343;28;20063;-40
2022/11/12 11:04:34;;;;;;;3.17;2.97;;;;;;;;;;5052314;28;20454;-41
2022/11/12 11:07:18;;;;;;;0.85;0.85;;;;;;;;;;5052105;28;20047;-40
2022/11/12 11:10:02;;;;;;;1.02;0.50;;;;;;;;;;5051909;28;20394;-40
2022/11/12 11:12:46;;;;;;;0.50;0.50;;;;;;;;;;5051086;28;20091;-40
2022/11/12 11:15:30;;;;;;;1.05;0.65;;;;;;;;;;5051845;28;20087;-40
2022/11/12 11:18:14;;;;;;;0.98;0.65;;;;;;;;;;5051833;28;20043;-40
2022/11/12 11:21:16;;;;;;;1.08;0.57;;;;;;;;;;5052157;28;20104;-40
2022/11/12 11:24:21;;;;;;;0.80;0.70;;;;;;;;;;5051775;28;20087;-40
2022/11/12 11:27:20;;;;;;;0.40;0.40;;;;;;;;;;5052024;28;20114;-40
2022/11/12 11:30:14;;;;;;;0.55;0.35;;;;;;;;;;5051633;28;20679;-40
2022/11/12 11:33:18;;;;;;;0.35;0.32;;;;;;;;;;5051600;28;20043;-40
2022/11/12 11:36:11;;;;;;;1.08;0.50;;;;;;;;;;5051832;28;20574;-40
2022/11/12 11:38:56;;;;;;;0.88;0.55;;;;;;;;;;5051411;28;20403;-41
2022/11/12 11:41:42;;;;;;;0.30;0.28;;;;;;;;;;5051450;28;20129;-40
2022/11/12 11:44:44;;;;;;;1.70;0.47;;;;;;;;;;5051794;28;20090;-40
2022/11/12 11:47:34;;;;;;;0.40;0.40;;;;;;;;;;5051405;28;20076;-40
2022/11/12 11:50:23;;;;;;;0.73;0.50;;;;;;;;;;5051766;28;20407;-40
2022/11/12 11:53:07;;;;;;;0.47;0.30;;;;;;;;;;5051321;28;20043;-40
2022/11/12 11:56:11;;;;;;;1.63;0.60;;;;;;;;;;5051330;28;20110;-40
2022/11/12 11:59:11;;;;;;;1.50;0.68;;;;;;;;;;5051644;28;20498;-40
2022/11/12 12:01:59;;;;;;;1.20;0.50;;;;;;;;;;5051578;28;20099;-41
2022/11/12 12:05:01;;;;;;;0.57;0.50;;;;;;;;;;5051305;28;20079;-40
2022/11/12 12:07:51;;;;;;;0.60;0.57;;;;;;;;;;5050205;28;20142;-40
2022/11/12 12:10:47;;;;;;;1.10;0.28;;;;;;;;;;5051398;28;20052;-40
2022/11/12 12:13:43;;;;;;;0.30;0.22;;;;;;;;;;5051141;28;20052;-40
2022/11/12 12:16:33;;;;;;;1.25;0.38;;;;;;;;;;5051467;28;20048;-40
2022/11/12 12:19:35;;;;;;;0.70;0.70;;;;;;;;;;5051497;28;20040;-40
2022/11/12 12:22:48;;;;;;;0.68;0.40;;;;;;;;;;5051127;28;20073;-40
2022/11/12 12:25:36;;;;;;;0.80;0.40;;;;;;;;;;5048186;28;20067;-41
2022/11/12 12:28:26;;;;;;;0.20;0.20;;;;;;;;;;5051024;28;20131;-40
2022/11/12 12:31:15;;;;;;;0.55;0.40;;;;;;;;;;5051393;28;20517;-39
2022/11/12 12:34:01;;;;;;;0.50;0.50;;;;;;;;;;5051288;28;20032;-40
2022/11/12 12:36:49;;;;;;;0.43;0.30;;;;;;;;;;5050954;28;20051;-40
2022/11/12 12:39:37;;;;;;;0.88;0.28;;;;;;;;;;5051238;28;20050;-40
2022/11/12 12:42:26;;;;;;;0.30;0.30;;;;;;;;;;5050097;28;20071;-40
2022/11/12 12:45:32;;;;;;;0.30;0.30;;;;;;;;;;5050949;28;20039;-40
2022/11/12 12:48:29;;;;;;;0.35;0.30;;;;;;;;;;5050795;28;20780;-40
2022/11/12 12:51:13;;;;;;;3.78;1.00;;;;;;;;;;5051535;28;20122;-41
2022/11/12 12:53:58;;;;;;;0.50;0.28;;;;;;;;;;5054630;28;20048;-40
2022/11/12 12:56:42;;;;;;;0.57;0.50;;;;;;;;;;5054694;28;20395;-41
2022/11/12 12:59:27;;;;;;;0.60;0.40;;;;;;;;;;5054790;28;20068;-40
2022/11/12 13:02:21;;;;;;;0.60;0.30;;;;;;;;;;5054437;28;20045;-40
2022/11/12 13:05:05;;;;;;;0.20;0.20;;;;;;;;;;5054608;28;20040;-41
2022/11/12 13:07:50;;;;;;;0.88;0.70;;;;;;;;;;5054297;28;20051;-40
2022/11/12 13:10:40;;;;;;;1.13;0.90;;;;;;;;;;5054475;28;20082;-40
2022/11/12 13:13:29;;;;;;;0.82;0.50;;;;;;;;;;5054494;28;20064;-40
2022/11/12 13:16:33;;;;;;;0.52;0.40;;;;;;;;;;5054501;28;20040;-40
2022/11/12 13:19:25;;;;;;;0.50;0.40;;;;;;;;;;5054025;28;20039;-40
2022/11/12 13:22:16;;;;;;;1.65;0.80;;;;;;;;;;5054383;28;20079;-40
2022/11/12 13:25:05;;;;;;;1.02;0.38;;;;;;;;;;5054014;28;20052;-40
2022/11/12 13:27:49;;;;;;;0.68;0.30;;;;;;;;;;5053902;28;20202;-41
2022/11/12 13:30:33;;;;;;;0.77;0.38;;;;;;;;;;5054119;28;20581;-40
2022/11/12 13:33:24;;;;;;;1.65;0.40;;;;;;;;;;5053823;28;20052;-40
2022/11/12 13:36:34;;;;;;;0.50;0.50;;;;;;;;;;5054123;28;20032;-40
2022/11/12 13:39:19;;;;;;;0.32;0.30;;;;;;;;;;5053812;28;20043;-40
2022/11/12 13:45:14;;;;;;;0.38;0.30;;;;;;;;;;5053684;28;20460;-40
2022/11/12 13:47:59;;;;;;;0.32;0.32;;;;;;;;;;5053476;28;20055;-40
2022/11/12 13:50:48;;;;;;;0.43;0.43;;;;;;;;;;5053760;28;20517;-40
2022/11/12 13:53:32;;;;;;;0.73;0.68;;;;;;;;;;5052636;28;20557;-40
2022/11/12 13:56:27;;;;;;;0.43;0.28;;;;;;;;;;5053540;28;20425;-40
2022/11/12 13:59:14;;;;;;;0.32;0.32;;;;;;;;;;5053405;28;20044;-40
2022/11/12 14:02:02;;;;;;;0.57;0.50;;;;;;;;;;5053093;28;20047;-40
2022/11/12 14:04:46;;;;;;;0.98;0.60;;;;;;;;;;5053246;28;20059;-41
2022/11/12 14:07:33;;;;;;;0.85;0.60;;;;;;;;;;5053139;28;20040;-40
2022/11/12 14:10:20;;;;;;;0.40;0.40;;;;;;;;;;5053168;28;20409;-40
2022/11/12 14:13:07;;;;;;;0.65;0.50;;;;;;;;;;5053360;28;20056;-41
2022/11/12 14:15:54;;;;;;;0.65;0.50;;;;;;;;;;5052791;28;20031;-40
2022/11/12 14:19:04;;;;;;;0.60;0.50;;;;;;;;;;5053230;28;20453;-40
2022/11/12 14:22:09;;;;;;;0.50;0.50;;;;;;;;;;5052834;28;20071;-40
2022/11/12 14:24:58;;;;;;;1.27;0.55;;;;;;;;;;5053067;28;20044;-40
2022/11/12 14:27:42;;;;;;;1.40;1.30;;;;;;;;;;5052736;28;20106;-40
2022/11/12 14:30:30;;;;;;;0.60;0.40;;;;;;;;;;5053050;28;20082;-40
2022/11/12 14:33:20;;;;;;;0.63;0.30;;;;;;;;;;5052965;28;20036;-41
2022/11/12 14:36:12;;;;;;;0.40;0.40;;;;;;;;;;5052925;28;20498;-40
2022/11/12 14:38:57;;;;;;;0.38;0.38;;;;;;;;;;5052725;28;20094;-40
2022/11/12 14:41:41;;;;;;;0.85;0.30;;;;;;;;;;5052544;28;20490;-40
2022/11/12 14:44:33;;;;;;;0.95;0.50;;;;;;;;;;5052736;28;20036;-41
2022/11/12 14:47:17;;;;;;;0.30;0.30;;;;;;;;;;5052609;28;20148;-40
2022/11/12 14:50:01;;;;;;;0.52;0.32;;;;;;;;;;5052258;28;20106;-40
2022/11/12 14:52:47;;;;;;;0.30;0.30;;;;;;;;;;5052505;28;20036;-41
2022/11/12 14:55:33;;;;;;;0.63;0.40;;;;;;;;;;5052557;28;20083;-40
2022/11/12 14:58:18;;;;;;;1.23;0.68;;;;;;;;;;5052426;28;20035;-40
2022/11/12 15:01:22;;;;;;;0.40;0.40;;;;;;;;;;5052507;28;20048;-40
2022/11/12 15:04:09;;;;;;;0.22;0.22;;;;;;;;;;5052397;28;20518;-41
2022/11/12 15:06:54;;;;;;;0.32;0.30;;;;;;;;;;5052044;28;20040;-41
2022/11/12 15:09:38;;;;;;;0.10;0.10;;;;;;;;;;5051991;28;20110;-40
2022/11/12 15:12:32;;;;;;;0.98;0.50;;;;;;;;;;5051908;28;20087;-40
2022/11/12 15:15:21;;;;;;;0.30;0.30;;;;;;;;;;5051679;28;20506;-40
2022/11/12 15:18:05;;;;;;;0.93;0.50;;;;;;;;;;5051976;28;20036;-40
2022/11/12 15:21:08;;;;;;;0.50;0.35;;;;;;;;;;5052024;28;20449;-40
2022/11/12 15:23:58;;;;;;;0.70;0.52;;;;;;;;;;5051796;28;20091;-40
2022/11/12 15:26:43;;;;;;;1.67;0.65;;;;;;;;;;5051609;28;20071;-41
2022/11/12 15:29:34;;;;;;;0.47;0.30;;;;;;;;;;5051716;28;20055;-40
2022/11/12 15:32:19;;;;;;;0.38;0.30;;;;;;;;;;5051797;28;20403;-40
2022/11/12 15:35:03;;;;;;;0.50;0.50;;;;;;;;;;5051675;28;20541;-40
2022/11/12 15:37:47;;;;;;;0.30;0.30;;;;;;;;;;5051621;28;20087;-40
2022/11/12 15:40:31;;;;;;;0.55;0.30;;;;;;;;;;5051625;28;20052;-40
2022/11/12 15:43:17;;;;;;;0.60;0.60;;;;;;;;;;5051799;28;20083;-40
2022/11/12 15:46:01;;;;;;;0.22;0.22;;;;;;;;;;5051538;28;20048;-40
2022/11/12 15:48:44;;;;;;;0.20;0.20;;;;;;;;;;5051167;28;20056;-40
2022/11/12 15:51:28;;;;;;;1.63;0.50;;;;;;;;;;5051442;28;20071;-40
2022/11/12 15:54:12;;;;;;;0.38;0.32;;;;;;;;;;5051647;28;20039;-40
2022/11/12 15:56:56;;;;;;;0.47;0.47;;;;;;;;;;5051587;28;20509;-40
2022/11/12 15:59:41;;;;;;;0.55;0.30;;;;;;;;;;5051582;28;20059;-41
2022/11/12 16:02:25;;;;;;;1.85;1.02;;;;;;;;;;5051491;28;20600;-42
2022/11/12 16:05:16;;;;;;;3.70;0.55;;;;;;;;;;5051381;28;20502;-40
2022/11/12 16:08:01;;;;;;;0.98;0.75;;;;;;;;;;5051502;28;20118;-40
2022/11/12 16:10:45;;;;;;;0.47;0.40;;;;;;;;;;5051220;28;20044;-40
2022/11/12 16:13:33;;;;;;;0.65;0.40;;;;;;;;;;5051260;28;20434;-40
2022/11/12 16:16:17;;;;;;;0.95;0.60;;;;;;;;;;5051199;28;20450;-40
2022/11/12 16:19:01;;;;;;;1.17;0.60;;;;;;;;;;5051452;28;20386;-40
2022/11/12 16:21:45;;;;;;;1.77;0.70;;;;;;;;;;5051318;28;20040;-40
2022/11/12 16:24:28;;;;;;;1.80;0.70;;;;;;;;;;5051154;28;20044;-40
2022/11/12 16:27:13;;;;;;;0.55;0.30;;;;;;;;;;5055200;28;20082;-40
2022/11/12 16:29:57;;;;;;;3.83;1.10;;;;;;;;;;5054950;28;20056;-41
2022/11/12 16:32:42;;;;;;;0.88;0.73;;;;;;;;;;5055027;28;20505;-40
2022/11/12 16:35:26;;;;;;;0.50;0.50;;;;;;;;;;5055036;28;20056;-40
2022/11/12 16:38:15;;;;;;;0.80;0.77;;;;;;;;;;5055199;28;20493;-40
2022/11/12 16:40:59;;;;;;;0.52;0.52;;;;;;;;;;5054913;28;20510;-41
2022/11/12 16:43:43;;;;;;;1.08;0.80;;;;;;;;;;5054717;28;20040;-41
2022/11/12 16:46:28;;;;;;;0.43;0.40;;;;;;;;;;5055089;28;20131;-40
2022/11/12 16:49:15;;;;;;;0.55;0.55;;;;;;;;;;5054512;28;20064;-40
2022/11/12 16:51:59;;;;;;;1.45;1.27;;;;;;;;;;5054914;28;20137;-40
2022/11/12 16:54:43;;;;;;;0.68;0.68;;;;;;;;;;5054543;28;20036;-40
2022/11/12 16:57:27;;;;;;;0.77;0.65;;;;;;;;;;5054636;28;20389;-40
2022/11/12 17:00:13;;;;;;;1.35;1.27;;;;;;;;;;5054720;28;20094;-40
2022/11/12 17:02:57;;;;;;;2.40;0.90;;;;;;;;;;5054632;28;20091;-40
2022/11/12 17:05:41;;;;;;;0.55;0.45;;;;;;;;;;5053325;28;20071;-40
2022/11/12 17:08:28;;;;;;;1.23;0.68;;;;;;;;;;5054327;28;20051;-41